Time,TemperatureF,DewpointF,PressureIn,WindDirection,WindDirectionDegrees,WindSpeedMPH,WindSpeedGustMPH,Humidity,HourlyPrecipIn,Conditions,Clouds,dailyrainin,SoftwareType,DateUTC
2013-11-06 05:53:00,46.0,41.0,30.25,ESE,112,0.0,0.0,83,0.00,,,0.00,,2013-11-06 10:53:00,
2013-11-06 06:22:00,46.0,41.0,30.25,ESE,112,0.0,0.0,84,0.00,,,0.00,,2013-11-06 11:22:00,
2013-11-06 06:42:00,45.0,40.0,30.24,ESE,112,0.0,0.0,83,0.00,,,0.00,,2013-11-06 11:42:00,
2013-11-06 06:52:00,46.0,42.0,30.23,ESE,112,0.0,0.0,86,0.00,,,0.00,,2013-11-06 11:52:00,
2013-11-06 07:22:00,48.0,44.0,30.23,ESE,112,0.0,1.0,85,0.00,,,0.00,,2013-11-06 12:22:00,
2013-11-06 07:42:00,48.0,43.0,30.23,ESE,112,0.0,1.0,84,0.00,,,0.00,,2013-11-06 12:42:00,
2013-11-06 07:52:00,49.0,44.0,30.23,ESE,112,0.0,0.0,83,0.00,,,0.00,,2013-11-06 12:52:00,
2013-11-06 08:12:00,49.0,44.0,30.22,ESE,112,0.0,1.0,82,0.00,,,0.00,,2013-11-06 13:12:00,
2013-11-06 08:22:00,49.0,44.0,30.22,ESE,112,0.0,1.0,83,0.00,,,0.00,,2013-11-06 13:22:00,
2013-11-06 08:42:00,49.0,44.0,30.24,ESE,112,0.0,1.0,82,0.00,,,0.00,,2013-11-06 13:42:00,
2013-11-06 08:52:00,52.0,46.0,30.24,ENE,61,0.0,6.0,80,0.00,,,0.00,,2013-11-06 13:52:00,
2013-11-06 09:22:00,56.0,47.0,30.24,NE,53,1.0,4.0,71,0.00,,,0.00,,2013-11-06 14:22:00,
2013-11-06 09:42:00,57.0,47.0,30.24,ESE,119,0.0,2.0,70,0.00,,,0.00,,2013-11-06 14:42:00,
2013-11-06 09:52:00,60.0,47.0,30.23,East,79,1.0,4.0,62,0.00,,,0.00,,2013-11-06 14:52:00,
2013-11-06 10:11:00,61.0,47.0,30.23,East,98,1.0,5.0,60,0.00,,,0.00,,2013-11-06 15:11:00,
2013-11-06 10:22:00,63.0,46.0,30.22,ENE,65,1.0,6.0,54,0.00,,,0.00,,2013-11-06 15:22:00,
2013-11-06 10:43:00,64.0,47.0,30.22,ENE,70,1.0,6.0,53,0.00,,,0.00,,2013-11-06 15:43:00,
2013-11-06 10:54:00,66.0,48.0,30.21,East,90,1.0,5.0,53,0.00,,,0.00,,2013-11-06 15:54:00,
2013-11-06 11:23:00,68.0,47.0,30.20,ESE,107,1.0,4.0,47,0.00,,,0.00,,2013-11-06 16:23:00,
2013-11-06 11:42:00,69.0,47.0,30.20,East,95,2.0,5.0,46,0.00,,,0.00,,2013-11-06 16:42:00,
2013-11-06 11:53:00,69.0,47.0,30.19,ESE,111,1.0,6.0,45,0.00,,,0.00,,2013-11-06 16:53:00,
2013-11-06 12:13:00,69.0,48.0,30.18,ENE,57,2.0,4.0,47,0.00,,,0.00,,2013-11-06 17:13:00,
2013-11-06 12:23:00,70.0,48.0,30.17,East,100,1.0,7.0,46,0.00,,,0.00,,2013-11-06 17:23:00,
2013-11-06 12:43:00,70.0,47.0,30.16,East,100,4.0,9.0,44,0.00,,,0.00,,2013-11-06 17:43:00,
2013-11-06 12:52:00,70.0,47.0,30.14,ENE,61,1.0,4.0,44,0.00,,,0.00,,2013-11-06 17:52:00,
2013-11-06 13:22:00,70.0,46.0,30.12,ESE,117,3.0,7.0,42,0.00,,,0.00,,2013-11-06 18:22:00,
2013-11-06 13:42:00,70.0,46.0,30.11,SE,127,1.0,8.0,43,0.00,,,0.00,,2013-11-06 18:42:00,
2013-11-06 13:52:00,70.0,46.0,30.10,SE,126,0.0,4.0,43,0.00,,,0.00,,2013-11-06 18:52:00,
2013-11-06 14:22:00,70.0,46.0,30.08,East,94,0.0,5.0,42,0.00,,,0.00,,2013-11-06 19:22:00,
2013-11-06 14:42:00,70.0,46.0,30.08,SSW,207,0.0,4.0,42,0.00,,,0.00,,2013-11-06 19:42:00,
2013-11-06 14:52:00,71.0,45.0,30.07,ESE,117,0.0,5.0,40,0.00,,,0.00,,2013-11-06 19:52:00,
2013-11-06 15:22:00,71.0,47.0,30.06,SSE,161,1.0,2.0,42,0.00,,,0.00,,2013-11-06 20:22:00,
2013-11-06 15:52:00,71.0,47.0,30.05,NE,36,0.0,3.0,43,0.00,,,0.00,,2013-11-06 20:52:00,
2013-11-06 16:12:00,71.0,47.0,30.05,NE,36,0.0,1.0,43,0.00,,,0.00,,2013-11-06 21:12:00,
2013-11-06 16:22:00,70.0,46.0,30.04,ENE,65,0.0,6.0,43,0.00,,,0.00,,2013-11-06 21:22:00,
2013-11-06 16:54:00,69.0,47.0,30.03,ENE,65,0.0,1.0,46,0.00,,,0.00,,2013-11-06 21:54:00,
2013-11-06 17:14:00,68.0,47.0,30.03,ENE,65,0.0,3.0,47,0.00,,,0.00,,2013-11-06 22:14:00,
2013-11-06 17:24:00,68.0,48.0,30.02,ENE,65,0.0,1.0,48,0.00,,,0.00,,2013-11-06 22:24:00,
2013-11-06 17:43:00,67.0,47.0,30.02,ENE,65,1.0,2.0,49,0.00,,,0.00,,2013-11-06 22:43:00,
2013-11-06 17:53:00,67.0,48.0,30.02,ENE,65,0.0,1.0,50,0.00,,,0.00,,2013-11-06 22:53:00,
2013-11-06 18:22:00,67.0,48.0,30.02,ENE,65,0.0,0.0,50,0.00,,,0.00,,2013-11-06 23:22:00,
2013-11-06 18:53:00,65.0,48.0,30.02,ENE,65,0.0,0.0,54,0.00,,,0.00,,2013-11-06 23:53:00,
2013-11-06 19:22:00,64.0,48.0,30.01,ENE,65,0.0,0.0,57,0.00,,,0.00,,2013-11-07 00:22:00,
2013-11-06 19:42:00,63.0,48.0,30.01,ENE,65,0.0,0.0,58,0.00,,,0.00,,2013-11-07 00:42:00,
2013-11-06 19:52:00,62.0,47.0,30.00,ENE,65,2.0,4.0,59,0.00,,,0.00,,2013-11-07 00:52:00,
2013-11-06 20:22:00,63.0,48.0,29.99,NNW,348,0.0,2.0,57,0.00,,,0.00,,2013-11-07 01:22:00,
2013-11-06 20:42:00,63.0,48.0,29.98,NE,39,0.0,3.0,58,0.00,,,0.00,,2013-11-07 01:42:00,
2013-11-06 20:52:00,63.0,48.0,29.98,NE,39,0.0,1.0,57,0.00,,,0.00,,2013-11-07 01:52:00,
2013-11-06 21:12:00,63.0,48.0,29.98,NE,39,0.0,0.0,57,0.00,,,0.00,,2013-11-07 02:12:00,
2013-11-06 21:22:00,62.0,47.0,29.97,NE,39,0.0,0.0,58,0.00,,,0.00,,2013-11-07 02:22:00,
2013-11-06 22:22:00,62.0,47.0,29.96,NE,39,0.0,0.0,58,0.00,,,0.00,,2013-11-07 03:22:00,
2013-11-06 22:44:00,62.0,47.0,29.96,NE,39,0.0,0.0,58,0.00,,,0.00,,2013-11-07 03:44:00,
2013-11-06 22:55:00,62.0,47.0,29.95,NE,39,0.0,0.0,59,0.00,,,0.00,,2013-11-07 03:55:00,
2013-11-06 23:13:00,62.0,47.0,29.95,NE,39,0.0,0.0,58,0.00,,,0.00,,2013-11-07 04:13:00,
2013-11-06 23:24:00,63.0,48.0,29.94,NE,39,0.0,0.0,57,0.00,,,0.00,,2013-11-07 04:24:00,
2013-11-06 23:43:00,63.0,48.0,29.94,NE,39,0.0,0.0,57,0.00,,,0.00,,2013-11-07 04:43:00,
2013-11-06 23:53:00,63.0,48.0,29.94,NE,39,0.0,1.0,57,0.00,,,0.00,,2013-11-07 04:53:00,